ROTAER AMDT 45/18

Major Brigadeiro Doorgal Borges ( SBBQ ) / BARBACENA, MG 21 16 02S/043 45 38W
AD MIL FAB 6/S UTC-3 OTHER [1] VFR IFR L21 , L23 , L26 1115 (3658)

18 - L9 [3] , L12 - ( 1760x30 ASPH 14/F/A/Y/T L14 ) - L9 [2] , L12 - 36

SBCW (CINDACTA 2)
COM -
RÁDIO [1] 125.900
RDONAV -
DME BBC 111.7 2115.89S/04345.80W
CMB- [1] [5] PF TF RFFS - CAT - 5
MET -

[4] CMA 1,2,3,4,5,6,7,8,9

AIS - [1] (32) 3331-7011

RMK -

REGULAMENTOS PARA TRÁFEGO LOCAL
  1. OBS ACFT em voo de instrução próximo ao AD
INFORMAÇÃO ADICIONAL
  1. ACFT CIV poderão utilizar AD SBBQ como DEST ou ALTN somente com AUTH da Escola Preparatória de Cadetes do Ar (EPCAR) através do site www.epcar.aer.mil.br, link AUTORIZAÇÃO SBBQ. INFO THRU TEL: (32) 3331-5320, (32) 3333-1701, (32) 3331-7011, (32) 3339-4220. ACFT CIV em voo de evacuação de emergência médica estão previamente AUTH.
  2. Concentração de pássaros nas proximidades do circuito de TFC
COMPL -
  • [1] (DLY 0900-2300)
  • [2] MEHT: 55FT
  • [3] MEHT: 42FT
  • [4] Autoatendimento Help-Met
  • [5] Somente para ACFT da Força Aérea Brasileira. Demais ACFT de forças armadas PPR. INFO THRU TEL (32) 3333-1701.
TEMP (1)
INFOTEMP 0077/2019
MET CMA (1 A 9) HR SER 0800-2200

Duração: 11/02/19 00:00 a 16/02/19 23:59 UTC | Divulgação: 04/02/2019 20:01


Suplementos AIP (0)

NOTAM (5)

E0272/19 N 12/02/2019 12:02
PAPI RWY 36 U/S


E0271/19 N 12/02/2019 11:56
PAPI RWY 18 U/S


E0216/19 N 04/02/2019 18:59
AFIS HR SER 0800-2200


E2855/18 N 19/12/2018 16:04
SER COMBUSTIVEL AVGAS NEG AVBL


Z1381/18 N 27/08/2018 17:30
AIS ROTAER MODIFICAR RMK SER COMBUSTIVEL PARA:
- DLY 0900-2300 (SOMENTE PARA ACFT DA FORCA AEREA BRASILEIRA).
DEMAIS ACFT DE FORCAS ARMADAS PPR INFO PELO TEL (32) 3333-1701
REF: ROTAER


Nascer/Por do Sol

08:46

21:31


METAR

161800Z 30006KT 4000 -RA OVC012 21/19 Q1015= 2019021618 - SPECI SBBQ 161813Z 29006KT 2000 RA OVC012 21/19 Q1015=

TAF

Não disponível


Cartas (8)

ADC


IAC


SID


VAC



Rotas Preferenciais (0)